HOECHSTEN Weather Reports


Display with metric or nautical units.
time (UTC)temp
F
wind
direction
speed
MPH
gust
MPH
rain 1hr
in
rain 24hr
in
rain mn
in
humidity
%
barometer
mb
20260507020211 43 231 12.0 0.0 0.00 0.00 0.00 59 1009.0
20260507013212 43 240 11.0 0.0 0.00 0.00 0.00 59 1008.9
20260507010211 43 238 13.0 0.0 0.00 0.00 0.00 59 1008.8
20260507003209 44 202 14.0 0.0 0.00 0.00 0.00 59 1008.5
20260507000209 44 202 16.0 0.0 0.00 0.00 0.00 60 1008.4
20260506233209 44 199 10.0 0.0 0.00 0.00 0.00 60 1008.2
20260506230209 44 225 12.0 0.0 0.00 0.00 0.00 60 1008.3
20260506223209 44 200 10.0 0.0 0.00 0.00 0.00 60 1008.2
20260506213209 44 248 13.0 0.0 0.00 0.00 0.28 59 1008.0
20260506210210 45 198 13.0 0.0 0.00 0.00 0.28 60 1008.0
20260506203210 45 211 10.0 0.0 0.00 0.00 0.28 60 1007.7
20260506200210 45 196 13.0 0.0 0.00 0.00 0.28 60 1007.4
20260506193215 45 200 12.0 0.0 0.00 0.00 0.28 60 1007.1
20260506190211 45 258 15.0 0.0 0.00 0.00 0.28 60 1006.9
20260506183209 45 204 18.0 0.0 0.00 0.00 0.28 60 1006.3
20260506180216 45 244 17.0 0.0 0.00 0.00 0.28 61 1006.2
20260506173210 46 209 12.0 0.0 0.00 0.00 0.28 61 1005.8
20260506170215 46 243 16.0 0.0 0.00 0.00 0.28 61 1005.4
20260506163210 45 222 17.0 0.0 0.00 0.00 0.28 62 1005.1
20260506160210 45 188 23.0 0.0 0.00 0.00 0.28 63 1004.8
20260506153210 45 0 21.0 0.0 0.00 0.00 0.28 64 1004.7
20260506150210 45 190 24.0 0.0 0.00 0.00 0.27 66 1004.8
20260506143210 46 216 31.0 0.0 0.00 0.00 0.09 69 1004.3
20260506140210 49 253 25.0 0.0 0.00 0.00 0.02 75 1003.8
20260506133211 54 157 11.0 0.0 0.00 0.00 0.00 76 1003.3
20260506130211 54 205 9.0 0.0 0.00 0.00 0.00 76 1003.2
20260506123210 54 227 9.0 0.0 0.00 0.00 0.00 76 1003.0
20260506120210 55 221 7.0 0.0 0.00 0.00 0.00 76 1002.8
20260506113217 56 197 4.0 0.0 0.00 0.00 0.00 75 1002.7
20260506110210 56 230 3.0 0.0 0.00 0.00 0.00 76 1003.0
20260506100213 54 18 2.0 0.0 0.00 0.00 0.00 76 1003.3
20260506093211 53 34 8.0 0.0 0.00 0.00 0.00 76 1003.2
20260506090211 53 56 5.0 0.0 0.00 0.00 0.00 76 1003.5
20260506083211 54 232 5.0 0.0 0.00 0.00 0.00 75 1003.5
20260506080212 53 334 3.0 0.0 0.00 0.00 0.00 75 1003.3
20260506073211 53 235 3.0 0.0 0.00 0.00 0.00 75 1003.4
20260506070212 51 244 4.0 0.0 0.00 0.00 0.00 75 1003.4
20260506060210 50 213 7.0 0.0 0.00 0.00 0.00 74 1003.3
20260506050211 49 233 4.0 0.0 0.00 0.00 0.00 72 1003.6
20260506043211 48 227 7.0 0.0 0.00 0.00 0.00 71 1003.7
20260506040211 48 242 4.0 0.0 0.00 0.00 0.00 69 1004.1
20260506033211 48 248 3.0 0.0 0.00 0.00 0.00 69 1004.4
20260506030212 48 214 8.0 0.0 0.00 0.00 0.00 70 1004.8
20260506023211 48 194 7.0 0.0 0.00 0.00 0.00 72 1004.7